createdAt,value
2019-03-20T00:01:04.478Z,102172
2019-03-20T00:06:27.152Z,102172
2019-03-20T00:11:50.562Z,102183
2019-03-20T00:17:13.245Z,102189
2019-03-20T00:22:36.705Z,102187
2019-03-20T00:28:00.514Z,102189
2019-03-20T00:33:23.127Z,102178
2019-03-20T00:38:45.792Z,102176
2019-03-20T00:44:08.593Z,102170
2019-03-20T00:49:31.385Z,102175
2019-03-20T00:54:54.081Z,102180
2019-03-20T01:00:16.746Z,102181
2019-03-20T01:05:39.559Z,102180
2019-03-20T01:11:02.178Z,102188
2019-03-20T01:16:24.814Z,102180
2019-03-20T01:21:47.481Z,102182
2019-03-20T01:27:10.166Z,102181
2019-03-20T01:32:32.893Z,102182
2019-03-20T01:37:55.552Z,102191
2019-03-20T01:43:18.166Z,102188
2019-03-20T01:48:41.015Z,102190
2019-03-20T01:54:05.114Z,102194
2019-03-20T01:59:27.840Z,102186
2019-03-20T02:04:51.475Z,102187
2019-03-20T02:10:14.107Z,102179
2019-03-20T02:15:39.069Z,102176
2019-03-20T02:21:00.003Z,102180
2019-03-20T02:26:22.668Z,102179
2019-03-20T02:31:45.362Z,102171
2019-03-20T02:37:07.988Z,102173
2019-03-20T02:42:30.688Z,102170
2019-03-20T02:47:53.302Z,102183
2019-03-20T02:53:16.099Z,102182
2019-03-20T02:58:38.803Z,102175
2019-03-20T03:04:01.496Z,102181
2019-03-20T03:09:24.166Z,102180
2019-03-20T03:14:46.805Z,102179
2019-03-20T03:20:09.511Z,102184
2019-03-20T03:25:32.285Z,102185
2019-03-20T03:30:55.125Z,102190
2019-03-20T03:36:21.389Z,102192
2019-03-20T03:41:40.459Z,102186
2019-03-20T03:47:03.148Z,102177
2019-03-20T03:52:25.786Z,102176
2019-03-20T03:57:48.446Z,102176
2019-03-20T04:03:11.099Z,102180
2019-03-20T04:08:33.889Z,102186
2019-03-20T04:13:56.569Z,102182
2019-03-20T04:19:20.399Z,102183
2019-03-20T04:24:43.111Z,102184
2019-03-20T04:30:06.411Z,102184
2019-03-20T04:35:29.292Z,102192
2019-03-20T04:40:52.199Z,102189
2019-03-20T04:46:14.993Z,102190
2019-03-20T04:51:37.741Z,102189
2019-03-20T04:57:00.573Z,102192
2019-03-20T05:02:23.304Z,102190
2019-03-20T05:07:45.877Z,102197
2019-03-20T05:13:08.531Z,102198
2019-03-20T05:18:31.368Z,102205
2019-03-20T05:23:54.149Z,102208
2019-03-20T05:29:16.827Z,102214
2019-03-20T05:34:40.503Z,102218
2019-03-20T05:40:03.168Z,102223
2019-03-20T05:45:25.876Z,102226
2019-03-20T05:50:49.100Z,102233
2019-03-20T05:56:11.810Z,102238
2019-03-20T06:01:34.525Z,102238
2019-03-20T06:06:57.198Z,102234
2019-03-20T06:12:19.923Z,102251
2019-03-20T06:17:42.548Z,102253
2019-03-20T06:23:05.177Z,102253
2019-03-20T06:28:28.902Z,102246
2019-03-20T06:33:51.510Z,102257
2019-03-20T06:39:14.146Z,102255
2019-03-20T06:44:36.819Z,102252
2019-03-20T06:49:59.454Z,102264
2019-03-20T06:55:22.111Z,102251
2019-03-20T07:00:44.795Z,102256
2019-03-20T07:06:07.439Z,102256
2019-03-20T07:11:30.160Z,102268
2019-03-20T07:16:52.846Z,102271
2019-03-20T07:22:15.517Z,102270
2019-03-20T07:27:38.397Z,102266
2019-03-20T07:33:01.144Z,102265
2019-03-20T07:38:23.915Z,102272
2019-03-20T07:43:46.630Z,102269
2019-03-20T07:49:09.627Z,102278
2019-03-20T07:54:32.264Z,102296
2019-03-20T07:59:54.908Z,102294
2019-03-20T08:05:28.401Z,102315
2019-03-20T08:10:41.281Z,102320
2019-03-20T08:16:04.230Z,102320
2019-03-20T08:21:26.656Z,102314
2019-03-20T08:26:49.700Z,102327
2019-03-20T08:32:12.707Z,102330
2019-03-20T08:37:35.367Z,102330
2019-03-20T08:42:58.046Z,102327
2019-03-20T08:48:20.691Z,102341
2019-03-20T08:53:43.369Z,102334
2019-03-20T08:59:06.171Z,102335
2019-03-20T09:04:28.824Z,102333
2019-03-20T09:09:51.439Z,102336
2019-03-20T09:15:14.104Z,102339
2019-03-20T09:20:36.779Z,102333
2019-03-20T09:26:00.360Z,102337
2019-03-20T09:31:23.793Z,102334
2019-03-20T09:36:46.417Z,102331
2019-03-20T09:42:09.062Z,102323
2019-03-20T09:47:31.809Z,102325
2019-03-20T09:52:54.994Z,102322
2019-03-20T09:58:17.735Z,102324
2019-03-20T10:03:41.313Z,102324
2019-03-20T10:09:03.915Z,102316
2019-03-20T10:14:26.576Z,102321
2019-03-20T10:19:49.196Z,102326
2019-03-20T10:25:11.894Z,102321
2019-03-20T10:30:34.474Z,102326
2019-03-20T10:35:57.173Z,102322
2019-03-20T10:41:19.852Z,102327
2019-03-20T10:46:42.599Z,102332
2019-03-20T10:52:05.406Z,102332
2019-03-20T10:57:28.030Z,102340
2019-03-20T11:02:50.682Z,102336
2019-03-20T11:08:13.306Z,102339
2019-03-20T11:13:36.094Z,102342
2019-03-20T11:18:58.811Z,102341
2019-03-20T11:24:21.560Z,102342
2019-03-20T11:29:44.641Z,102351
2019-03-20T11:35:07.281Z,102356
2019-03-20T11:40:29.968Z,102359
2019-03-20T11:45:53.386Z,102353
2019-03-20T11:51:16.195Z,102356
2019-03-20T11:56:39.065Z,102352
2019-03-20T12:02:01.754Z,102361
2019-03-20T12:07:24.408Z,102366
2019-03-20T12:12:47.135Z,102355
2019-03-20T12:18:11.255Z,102367
2019-03-20T12:23:34.023Z,102370
2019-03-20T12:28:59.106Z,102374
2019-03-20T12:34:20.546Z,102370
2019-03-20T12:39:52.758Z,102369
2019-03-20T12:45:08.028Z,102366
2019-03-20T12:50:30.915Z,102371
2019-03-20T12:55:53.507Z,102367
2019-03-20T13:01:16.112Z,102371
2019-03-20T13:06:38.750Z,102377
2019-03-20T13:12:01.424Z,102382
2019-03-20T13:17:24.046Z,102375
2019-03-20T13:22:46.673Z,102370
2019-03-20T13:28:09.488Z,102364
2019-03-20T13:33:32.129Z,102364
2019-03-20T13:38:56.509Z,102364
2019-03-20T13:44:18.030Z,102359
2019-03-20T13:49:40.612Z,102365
2019-03-20T13:55:03.247Z,102367
2019-03-20T14:00:25.828Z,102369
2019-03-20T14:05:49.598Z,102370
2019-03-20T14:11:12.244Z,102379
2019-03-20T14:16:35.025Z,102366
2019-03-20T14:21:57.622Z,102363
2019-03-20T14:27:20.246Z,102366
2019-03-20T14:32:42.905Z,102363
2019-03-20T14:38:05.576Z,102359
2019-03-20T14:43:28.298Z,102363
2019-03-20T14:48:51.017Z,102367
2019-03-20T14:54:14.499Z,102368
2019-03-20T14:59:37.530Z,102369
2019-03-20T15:05:00.372Z,102368
2019-03-20T15:10:23.080Z,102368
2019-03-20T15:15:45.684Z,102369
2019-03-20T15:21:08.343Z,102365
2019-03-20T15:26:30.986Z,102362
2019-03-20T15:31:53.625Z,102354
2019-03-20T15:37:16.242Z,102354
2019-03-20T15:42:39.366Z,102353
2019-03-20T15:48:02.050Z,102347
2019-03-20T15:53:24.659Z,102339
2019-03-20T15:58:47.273Z,102347
2019-03-20T16:04:09.904Z,102347
2019-03-20T16:09:32.525Z,102338
2019-03-20T16:14:55.158Z,102348
2019-03-20T16:20:17.918Z,102359
2019-03-20T16:25:40.568Z,102364
2019-03-20T16:31:03.239Z,102364
2019-03-20T16:36:25.848Z,102362
2019-03-20T16:41:48.638Z,102368
2019-03-20T16:47:11.320Z,102368
2019-03-20T16:52:34.007Z,102371
2019-03-20T16:57:56.639Z,102375
2019-03-20T17:03:19.278Z,102374
2019-03-20T17:08:41.913Z,102380
2019-03-20T17:14:04.533Z,102379
2019-03-20T17:19:27.162Z,102367
2019-03-20T17:24:49.772Z,102365
2019-03-20T17:30:12.493Z,102365
2019-03-20T17:35:35.457Z,102376
2019-03-20T17:40:58.179Z,102372
2019-03-20T17:46:20.815Z,102373
2019-03-20T17:51:43.432Z,102376
2019-03-20T17:57:06.051Z,102375
2019-03-20T18:02:28.118Z,102379
2019-03-20T18:07:49.975Z,102390
2019-03-20T18:13:12.673Z,102392
2019-03-20T18:18:35.302Z,102400
2019-03-20T18:23:57.894Z,102396
2019-03-20T18:29:20.557Z,102400
2019-03-20T18:34:43.892Z,102408
2019-03-20T18:40:07.508Z,102410
2019-03-20T18:45:30.135Z,102418
2019-03-20T18:50:52.752Z,102418
2019-03-20T18:56:15.462Z,102417
2019-03-20T19:01:39.217Z,102428
2019-03-20T19:07:01.945Z,102432
2019-03-20T19:12:25.967Z,102439
2019-03-20T19:17:51.181Z,102441
2019-03-20T19:23:13.795Z,102451
2019-03-20T19:28:36.706Z,102451
2019-03-20T19:33:59.538Z,102450
2019-03-20T19:39:22.248Z,102445
2019-03-20T19:44:44.943Z,102447
2019-03-20T19:50:07.645Z,102445
2019-03-20T19:55:30.675Z,102442
2019-03-20T20:00:53.478Z,102442
2019-03-20T20:06:16.463Z,102440
2019-03-20T20:11:39.147Z,102432
2019-03-20T20:17:01.924Z,102439
2019-03-20T20:22:24.549Z,102439
2019-03-20T20:27:47.314Z,102445
2019-03-20T20:33:09.964Z,102457
2019-03-20T20:38:32.576Z,102457
2019-03-20T20:43:56.230Z,102457
2019-03-20T20:49:18.851Z,102465
2019-03-20T20:54:42.376Z,102464
2019-03-20T21:00:05.323Z,102458
2019-03-20T21:05:28.217Z,102457
2019-03-20T21:10:51.107Z,102454
2019-03-20T21:16:13.898Z,102451
2019-03-20T21:21:36.769Z,102446
2019-03-20T21:26:59.699Z,102452
2019-03-20T21:32:22.636Z,102450
2019-03-20T21:37:45.423Z,102453
2019-03-20T21:43:08.288Z,102461
2019-03-20T21:48:31.001Z,102462
2019-03-20T21:53:54.717Z,102453
2019-03-20T21:59:17.455Z,102454
2019-03-20T22:04:40.067Z,102453
2019-03-20T22:10:02.716Z,102458
2019-03-20T22:15:25.329Z,102466
2019-03-20T22:20:48.122Z,102472
2019-03-20T22:26:10.806Z,102468
2019-03-20T22:31:33.459Z,102471
2019-03-20T22:36:56.073Z,102476
2019-03-20T22:42:18.743Z,102479
2019-03-20T22:47:41.873Z,102477
2019-03-20T22:53:05.547Z,102471
2019-03-20T22:58:28.918Z,102473
2019-03-20T23:03:51.618Z,102475
2019-03-20T23:09:14.220Z,102474
2019-03-20T23:14:36.824Z,102478
2019-03-20T23:19:59.431Z,102474
2019-03-20T23:25:22.029Z,102474
2019-03-20T23:30:44.637Z,102468
2019-03-20T23:36:07.633Z,102470
2019-03-20T23:41:30.868Z,102480
2019-03-20T23:46:53.501Z,102474
2019-03-20T23:52:16.146Z,102475
2019-03-20T23:57:38.781Z,102469
